Time;durP1;ratioP1;P1;durP2;ratioP2;P2;SDS_P1;SDS_P2;PMS_P1;PMS_P2;Temp;Humidity;BMP_temperature;BMP_pressure;BME280_temperature;BME280_humidity;BME280_pressure;Samples;Min_cycle;Max_cycle;Signal;HPM_P1;HPM_P2
2022/08/14 00:02:13;;;;;;;6.20;5.10;;;;;;;23.91;48.99;101168.69;5098340;28;20251;-69
2022/08/14 00:04:38;;;;;;;5.10;4.60;;;;;;;24.25;48.31;101170.00;5098416;28;20442;-70
2022/08/14 00:07:04;;;;;;;6.67;4.83;;;;;;;24.45;48.54;101169.19;5098760;28;20171;-71
2022/08/14 00:09:30;;;;;;;5.93;5.17;;;;;;;24.45;47.89;101161.19;5098024;28;20507;-70
2022/08/14 00:11:55;;;;;;;9.47;5.00;;;;;;;24.63;47.50;101156.91;5098132;28;20415;-71
2022/08/14 00:14:21;;;;;;;5.20;4.67;;;;;;;23.96;49.07;101163.19;5098461;28;20194;-70
2022/08/14 00:16:47;;;;;;;5.10;4.60;;;;;;;24.13;48.64;101147.38;5098048;28;20213;-71
2022/08/14 00:19:13;;;;;;;6.40;5.17;;;;;;;24.33;48.34;101154.56;5097967;28;20179;-71
2022/08/14 00:21:38;;;;;;;5.63;4.77;;;;;;;25.03;46.70;101143.63;5098561;28;20176;-69
2022/08/14 00:24:04;;;;;;;5.00;4.60;;;;;;;24.64;47.78;101141.75;5101775;28;20553;-67
2022/08/14 00:26:29;;;;;;;5.43;4.93;;;;;;;24.25;48.40;101140.69;5102019;28;20176;-69
2022/08/14 00:28:55;;;;;;;5.63;5.13;;;;;;;24.01;49.04;101148.75;5102454;28;20263;-69
2022/08/14 00:31:21;;;;;;;5.70;5.20;;;;;;;23.67;49.94;101143.88;5102132;28;20172;-69
2022/08/14 00:33:46;;;;;;;6.53;5.90;;;;;;;24.16;49.01;101141.06;5101876;28;20545;-69
2022/08/14 00:36:11;;;;;;;8.93;6.17;;;;;;;24.46;48.08;101138.06;5102503;28;20277;-69
2022/08/14 00:38:37;;;;;;;7.20;6.03;;;;;;;23.69;50.01;101137.56;5101760;28;20437;-69
2022/08/14 00:41:07;;;;;;;7.70;6.07;;;;;;;23.78;49.42;101138.97;5101666;28;20222;-70
2022/08/14 00:43:34;;;;;;;6.70;6.00;;;;;;;23.83;49.58;101125.50;5102132;28;20190;-70
2022/08/14 00:46:09;;;;;;;7.53;5.67;;;;;;;23.94;49.32;101130.44;5101678;28;20409;-70
2022/08/14 00:48:35;;;;;;;8.80;5.87;;;;;;;23.46;50.44;101125.16;5101731;28;20410;-70
2022/08/14 00:51:01;;;;;;;7.10;6.00;;;;;;;23.88;49.96;101123.50;5101444;28;20859;-69
2022/08/14 00:53:27;;;;;;;8.70;6.10;;;;;;;23.88;49.68;101121.75;5101316;28;20525;-69
2022/08/14 00:55:56;;;;;;;6.90;6.20;;;;;;;23.67;49.97;101127.91;5101766;28;20194;-69
2022/08/14 00:58:31;;;;;;;6.70;5.70;;;;;;;24.00;49.39;101119.50;5101357;28;20260;-70
2022/08/14 01:00:59;;;;;;;7.33;5.80;;;;;;;24.32;48.83;101123.50;5101279;28;20449;-70
2022/08/14 01:03:26;;;;;;;6.40;5.63;;;;;;;24.20;49.07;101116.03;5101198;28;20406;-69
2022/08/14 01:05:51;;;;;;;6.90;5.90;;;;;;;23.73;50.07;101118.81;5101469;28;20706;-70
2022/08/14 01:08:23;;;;;;;6.27;5.67;;;;;;;24.03;49.88;101114.06;5101750;28;20405;-71
2022/08/14 01:10:49;;;;;;;6.10;5.50;;;;;;;23.67;50.36;101122.56;5101432;28;20179;-70
2022/08/14 01:13:18;;;;;;;6.57;5.80;;;;;;;23.66;50.76;101120.84;5101091;28;20407;-70
2022/08/14 01:15:44;;;;;;;8.20;6.63;;;;;;;23.63;50.76;101126.28;5101176;28;20467;-71
2022/08/14 01:21:10;;;;;;;5.83;5.23;;;;;;;23.62;50.81;101122.75;5100878;28;20523;-69
2022/08/14 01:23:38;;;;;;;5.77;5.27;;;;;;;23.34;51.45;101122.94;5100776;28;20417;-70
2022/08/14 01:26:04;;;;;;;5.63;5.13;;;;;;;23.54;51.02;101117.72;5100197;28;20501;-70
2022/08/14 01:28:33;;;;;;;5.67;5.17;;;;;;;23.62;51.13;101111.22;5100813;28;20505;-70
2022/08/14 01:30:58;;;;;;;6.10;5.60;;;;;;;23.44;51.70;101120.81;5100805;28;20501;-70
2022/08/14 01:33:28;;;;;;;5.60;5.10;;;;;;;23.87;50.40;101109.34;5100361;28;20450;-70
2022/08/14 01:35:56;;;;;;;7.03;5.20;;;;;;;23.21;52.01;101115.41;5100376;28;20185;-70
2022/08/14 01:38:23;;;;;;;5.53;5.03;;;;;;;23.68;51.55;101109.19;5100974;28;20929;-70
2022/08/14 01:40:49;;;;;;;6.93;5.90;;;;;;;23.46;51.60;101108.28;5099814;28;20874;-70
2022/08/14 01:43:16;;;;;;;11.70;6.10;;;;;;;23.68;51.07;101103.88;5100316;28;20513;-70
2022/08/14 01:45:43;;;;;;;5.93;4.43;;;;;;;23.35;51.62;101116.69;5101063;28;20255;-70
2022/08/14 01:48:09;;;;;;;5.93;4.80;;;;;;;23.47;51.60;101115.34;5100606;28;20414;-69
2022/08/14 01:50:35;;;;;;;7.07;4.63;;;;;;;23.47;51.44;101112.69;5100346;28;20465;-70
2022/08/14 01:53:01;;;;;;;5.63;5.10;;;;;;;23.97;50.84;101098.34;5100687;28;20835;-70
2022/08/14 01:55:30;;;;;;;5.40;4.90;;;;;;;24.10;50.11;101098.69;5100079;28;20216;-68
2022/08/14 01:57:56;;;;;;;5.20;4.70;;;;;;;24.02;50.57;101096.38;5100149;28;20168;-68
2022/08/14 02:00:23;;;;;;;5.83;4.80;;;;;;;24.00;50.61;101090.22;5100547;28;20483;-65
2022/08/14 02:02:48;;;;;;;9.50;4.83;;;;;;;23.40;51.88;101088.13;5099648;28;20683;-67
2022/08/14 02:05:14;;;;;;;7.93;5.07;;;;;;;23.26;52.75;101091.31;5100094;28;20464;-66
2022/08/14 02:07:42;;;;;;;5.37;4.87;;;;;;;23.25;52.74;101094.91;5100969;28;20571;-67
2022/08/14 02:10:09;;;;;;;5.37;4.87;;;;;;;23.49;51.96;101087.78;5100049;28;20192;-66
2022/08/14 02:12:34;;;;;;;6.63;4.83;;;;;;;23.10;53.05;101083.00;5100243;28;20406;-68
2022/08/14 02:15:00;;;;;;;7.37;4.90;;;;;;;23.29;52.73;101088.53;5100397;28;20402;-66
2022/08/14 02:17:26;;;;;;;6.10;5.43;;;;;;;23.35;52.42;101079.44;5100073;28;20179;-67
2022/08/14 02:19:52;;;;;;;6.63;5.30;;;;;;;22.99;53.54;101083.41;5099260;28;20204;-68
2022/08/14 02:22:18;;;;;;;5.67;5.10;;;;;;;23.35;52.71;101079.44;5100375;28;20674;-67
2022/08/14 02:24:44;;;;;;;6.20;5.47;;;;;;;23.22;53.12;101073.75;5099621;28;20418;-68
2022/08/14 02:27:10;;;;;;;5.57;5.07;;;;;;;23.01;53.69;101075.38;5099836;28;20389;-67
2022/08/14 02:29:36;;;;;;;5.43;4.93;;;;;;;23.37;52.93;101070.47;5100286;28;20614;-67
2022/08/14 02:32:01;;;;;;;5.60;4.50;;;;;;;23.00;53.51;101074.50;5099797;28;20449;-67
2022/08/14 02:34:31;;;;;;;5.30;4.80;;;;;;;22.86;54.27;101076.78;5081958;28;20415;-68
2022/08/14 02:37:08;;;;;;;5.40;4.50;;;;;;;22.91;53.72;101066.88;5100252;28;20167;-68
2022/08/14 02:39:43;;;;;;;9.10;4.73;;;;;;;23.09;53.63;101062.66;5098937;28;20776;-68
2022/08/14 02:42:11;;;;;;;7.67;4.97;;;;;;;22.83;54.66;101056.50;5099727;28;20501;-68
2022/08/14 02:44:38;;;;;;;5.40;5.00;;;;;;;22.87;54.53;101057.28;5099377;28;20442;-67
2022/08/14 02:47:03;;;;;;;5.10;4.60;;;;;;;23.14;54.16;101060.72;5098540;28;20497;-67
2022/08/14 02:49:29;;;;;;;8.83;5.20;;;;;;;22.94;54.32;101058.78;5099859;28;20441;-68
2022/08/14 02:51:55;;;;;;;5.57;5.07;;;;;;;22.82;54.72;101052.09;5098740;28;20172;-67
2022/08/14 02:54:22;;;;;;;9.23;4.77;;;;;;;22.96;54.33;101045.41;5098897;28;20276;-67
2022/08/14 02:56:49;;;;;;;6.50;5.63;;;;;;;23.39;53.62;101038.50;5099842;28;20407;-66
2022/08/14 02:59:15;;;;;;;6.30;5.50;;;;;;;22.77;55.02;101039.91;5098457;28;20413;-67
2022/08/14 03:01:42;;;;;;;5.90;5.30;;;;;;;22.77;55.03;101043.47;5099211;28;20449;-66
2022/08/14 03:04:09;;;;;;;5.90;5.40;;;;;;;23.18;54.26;101035.75;5099638;28;20414;-68
2022/08/14 03:06:37;;;;;;;7.80;6.03;;;;;;;23.04;54.61;101038.00;5099171;28;20668;-67
2022/08/14 03:09:03;;;;;;;6.87;6.27;;;;;;;22.80;54.98;101045.09;5099054;28;20393;-67
2022/08/14 03:11:30;;;;;;;8.63;5.57;;;;;;;23.07;54.69;101045.00;5099319;28;20402;-67
2022/08/14 03:13:55;;;;;;;7.47;6.20;;;;;;;22.74;55.61;101048.88;5098873;28;20442;-68
2022/08/14 03:16:23;;;;;;;9.50;5.77;;;;;;;22.83;55.02;101040.56;5098975;28;20421;-68
2022/08/14 03:18:52;;;;;;;8.10;5.83;;;;;;;22.69;55.74;101040.19;5099435;28;20164;-67
2022/08/14 03:21:19;;;;;;;8.50;6.37;;;;;;;22.82;55.56;101044.13;5098830;28;20453;-66
2022/08/14 03:23:46;;;;;;;6.73;6.20;;;;;;;22.94;54.94;101041.97;5098598;28;20413;-66
2022/08/14 03:26:14;;;;;;;12.83;6.40;;;;;;;22.66;56.29;101048.28;5099319;28;20416;-68
2022/08/14 03:28:41;;;;;;;7.10;6.40;;;;;;;22.88;55.68;101043.06;5098706;28;20433;-67
2022/08/14 03:31:08;;;;;;;6.53;5.90;;;;;;;22.85;55.28;101045.81;5098663;28;20410;-67
2022/08/14 03:33:36;;;;;;;9.70;6.50;;;;;;;22.73;55.91;101049.78;5098898;28;20420;-67
2022/08/14 03:36:11;;;;;;;6.53;5.77;;;;;;;22.77;55.69;101043.47;5098693;28;20694;-67
2022/08/14 03:38:41;;;;;;;6.30;5.70;;;;;;;23.24;54.28;101049.75;5098528;28;20388;-68
2022/08/14 03:41:13;;;;;;;6.03;5.50;;;;;;;23.62;53.66;101042.03;5098381;28;20491;-70
2022/08/14 03:43:41;;;;;;;6.33;5.80;;;;;;;22.65;56.41;101043.88;5098306;28;20463;-66
2022/08/14 03:46:09;;;;;;;7.27;5.87;;;;;;;22.32;57.56;101041.47;5098487;28;20410;-67
2022/08/14 03:48:34;;;;;;;6.63;5.87;;;;;;;22.96;55.82;101034.78;5098645;28;20410;-67
2022/08/14 03:51:00;;;;;;;8.63;5.40;;;;;;;23.00;54.86;101041.72;5098771;28;20631;-66
2022/08/14 03:53:25;;;;;;;5.87;5.20;;;;;;;22.36;57.17;101029.84;5097865;28;20187;-66
2022/08/14 03:55:54;;;;;;;6.50;5.90;;;;;;;22.46;57.15;101025.97;5098350;28;20216;-67
2022/08/14 03:58:19;;;;;;;6.23;5.70;;;;;;;22.65;56.59;101023.50;5098586;28;20182;-67
2022/08/14 04:00:45;;;;;;;5.50;5.00;;;;;;;22.65;56.49;101025.28;5098036;28;20548;-67
2022/08/14 04:03:10;;;;;;;6.97;5.60;;;;;;;23.06;56.06;101020.22;5098103;28;20222;-68
2022/08/14 04:05:41;;;;;;;7.57;5.10;;;;;;;23.49;54.36;101013.25;5098737;28;20207;-66
2022/08/14 04:08:07;;;;;;;11.60;5.80;;;;;;;23.49;54.18;101015.03;5098239;28;20406;-67
2022/08/14 04:10:33;;;;;;;5.70;5.10;;;;;;;23.53;54.45;101017.53;5097724;28;20385;-66
2022/08/14 04:13:04;;;;;;;6.60;4.90;;;;;;;22.83;55.83;101015.78;5098470;28;20470;-67
2022/08/14 04:15:31;;;;;;;7.60;5.10;;;;;;;22.85;56.09;101009.50;5098279;28;20172;-67
2022/08/14 04:17:57;;;;;;;5.50;5.00;;;;;;;22.61;56.87;101008.59;5098115;28;20449;-67
2022/08/14 04:20:23;;;;;;;5.60;4.67;;;;;;;22.28;57.79;101003.53;5098436;28;20442;-67
2022/08/14 04:22:49;;;;;;;6.20;4.97;;;;;;;22.73;56.96;101001.94;5097987;28;20414;-67
2022/08/14 04:25:15;;;;;;;7.97;4.87;;;;;;;22.79;56.87;100999.06;5097786;28;20446;-66
2022/08/14 04:27:40;;;;;;;6.63;5.10;;;;;;;22.94;56.07;100994.13;5098513;28;20402;-67
2022/08/14 04:30:06;;;;;;;5.70;4.63;;;;;;;22.93;56.21;100997.69;5097981;28;20172;-67
2022/08/14 04:32:32;;;;;;;8.03;5.03;;;;;;;23.16;56.22;100995.03;5097913;28;20266;-67
2022/08/14 04:35:01;;;;;;;6.07;5.10;;;;;;;22.93;56.27;100998.53;5098241;28;20518;-68
2022/08/14 04:45:40;;;;;;;5.50;5.00;;;;;;;23.60;54.47;100982.66;5097959;28;20433;-67
2022/08/14 04:48:13;;;;;;;5.30;4.67;;;;;;;24.71;51.72;100977.94;5097810;28;20406;-68
2022/08/14 04:50:44;;;;;;;5.57;4.93;;;;;;;24.18;52.67;100977.59;5097572;28;20573;-66
2022/08/14 04:53:12;;;;;;;6.77;4.50;;;;;;;23.58;54.36;100973.91;5096447;28;20521;-70
2022/08/14 04:55:39;;;;;;;9.10;4.70;;;;;;;24.06;53.35;100970.13;5096378;28;20469;-69
2022/08/14 04:58:05;;;;;;;7.53;5.60;;;;;;;25.64;49.90;100968.22;5098129;28;20471;-68
2022/08/14 05:00:31;;;;;;;7.33;5.00;;;;;;;25.24;50.41;100967.50;5097560;28;20489;-67
2022/08/14 05:02:58;;;;;;;5.07;4.57;;;;;;;24.46;52.15;100975.50;5097413;28;20184;-67
2022/08/14 05:05:24;;;;;;;5.30;4.60;;;;;;;24.05;53.38;100969.25;5097919;28;20410;-69
2022/08/14 05:07:50;;;;;;;5.00;4.60;;;;;;;23.40;54.92;100975.53;5097503;28;20471;-68
2022/08/14 05:10:22;;;;;;;5.10;4.40;;;;;;;23.67;54.92;100968.19;5099816;28;20164;-69
2022/08/14 05:12:48;;;;;;;5.37;4.73;;;;;;;24.70;52.07;100968.22;5101651;28;20406;-68
2022/08/14 05:15:14;;;;;;;5.40;4.30;;;;;;;24.05;53.78;100965.72;5101124;28;20414;-67
2022/08/14 05:17:42;;;;;;;8.23;5.30;;;;;;;23.76;54.43;100967.81;5101091;28;20530;-68
2022/08/14 05:20:08;;;;;;;8.70;4.50;;;;;;;23.77;55.02;100956.22;5101449;28;20203;-67
2022/08/14 05:22:33;;;;;;;6.17;4.70;;;;;;;23.74;54.81;100958.16;5100933;28;20443;-67
2022/08/14 05:25:00;;;;;;;6.60;5.07;;;;;;;23.64;54.95;100957.69;5100907;28;20310;-67
2022/08/14 05:27:25;;;;;;;5.30;4.70;;;;;;;22.97;56.95;100965.59;5101166;28;20175;-65
2022/08/14 05:29:52;;;;;;;5.30;4.77;;;;;;;24.21;53.65;100958.78;5100877;28;20633;-68
2022/08/14 05:32:17;;;;;;;5.33;4.83;;;;;;;23.76;54.59;100957.16;5100847;28;20175;-68
2022/08/14 05:34:43;;;;;;;8.10;4.60;;;;;;;23.55;55.48;100970.41;5100961;28;20647;-67
2022/08/14 05:37:08;;;;;;;5.83;4.90;;;;;;;24.73;52.26;100962.72;5100644;28;20174;-67
2022/08/14 05:39:34;;;;;;;7.43;4.90;;;;;;;25.07;51.53;100965.63;5100485;28;20220;-66
2022/08/14 05:41:59;;;;;;;6.20;4.67;;;;;;;25.15;50.65;100969.66;5100944;28;20225;-66
2022/08/14 05:44:24;;;;;;;5.30;4.77;;;;;;;25.04;51.17;100958.63;5100521;28;20172;-66
2022/08/14 05:46:50;;;;;;;5.80;4.50;;;;;;;26.02;48.51;100960.97;5100525;28;20255;-66
2022/08/14 05:49:15;;;;;;;6.10;4.43;;;;;;;26.88;46.57;100947.47;5100290;28;20481;-69
2022/08/14 05:51:41;;;;;;;4.90;4.50;;;;;;;28.26;43.51;100939.53;5100823;28;20168;-70
2022/08/14 05:54:06;;;;;;;5.87;4.60;;;;;;;26.30;47.28;100955.97;5100670;28;20234;-70
2022/08/14 05:56:32;;;;;;;6.93;4.63;;;;;;;27.93;44.57;100939.75;5101471;28;20164;-68
2022/08/14 05:58:58;;;;;;;5.17;4.60;;;;;;;28.17;44.02;100937.41;5100972;28;20172;-69
2022/08/14 06:01:23;;;;;;;10.60;4.40;;;;;;;25.96;48.87;100949.69;5100722;28;20210;-67
2022/08/14 06:03:49;;;;;;;7.43;4.97;;;;;;;24.85;51.96;100947.97;5100492;28;20422;-67
2022/08/14 06:06:14;;;;;;;7.03;4.80;;;;;;;27.39;46.04;100941.13;5100253;28;20168;-67
2022/08/14 06:08:40;;;;;;;5.90;4.73;;;;;;;26.21;48.25;100938.63;5100186;28;20180;-67
2022/08/14 06:11:06;;;;;;;8.20;4.40;;;;;;;25.08;51.23;100940.69;5100401;28;20168;-67
2022/08/14 06:13:34;;;;;;;7.23;4.80;;;;;;;26.22;48.63;100935.00;5100256;28;20624;-69
2022/08/14 06:15:59;;;;;;;6.20;4.80;;;;;;;26.43;48.58;100941.03;5100129;28;20552;-67
2022/08/14 06:18:25;;;;;;;7.77;4.70;;;;;;;26.11;48.01;100935.56;5100315;28;20839;-67
2022/08/14 06:20:50;;;;;;;6.30;4.50;;;;;;;28.59;43.12;100919.63;5099657;28;20204;-67
2022/08/14 06:23:16;;;;;;;5.07;4.63;;;;;;;26.78;46.76;100921.34;5099793;28;20218;-66
2022/08/14 06:25:43;;;;;;;5.30;4.70;;;;;;;29.02;42.41;100913.31;5100362;28;20169;-65
2022/08/14 06:28:15;;;;;;;7.40;4.50;;;;;;;29.64;40.92;100907.41;5099879;28;20168;-67
2022/08/14 06:30:41;;;;;;;9.23;4.70;;;;;;;30.09;39.86;100907.06;5098885;28;20426;-66
2022/08/14 06:33:06;;;;;;;6.83;4.40;;;;;;;30.56;39.08;100910.06;5099430;28;20418;-67
2022/08/14 06:35:32;;;;;;;8.70;4.77;;;;;;;29.64;41.21;100907.41;5099582;28;20471;-66
2022/08/14 06:37:59;;;;;;;6.03;4.10;;;;;;;31.31;37.84;100903.69;5099906;28;20200;-66
2022/08/14 06:40:33;;;;;;;7.67;4.40;;;;;;;30.26;39.47;100905.03;5099542;28;20210;-68
2022/08/14 06:43:01;;;;;;;5.23;4.47;;;;;;;32.20;35.71;100898.66;5099282;28;20701;-68
2022/08/14 06:45:26;;;;;;;6.60;4.50;;;;;;;31.62;36.55;100905.88;5099399;28;20410;-67
2022/08/14 06:47:53;;;;;;;4.50;4.10;;;;;;;32.31;35.61;100902.34;5099366;28;20441;-68
2022/08/14 06:50:20;;;;;;;6.90;4.70;;;;;;;30.63;38.32;100900.56;5099795;28;20540;-68
2022/08/14 06:52:46;;;;;;;6.80;4.80;;;;;;;31.60;37.00;100905.16;5098498;28;20411;-67
2022/08/14 06:55:13;;;;;;;5.40;4.30;;;;;;;31.42;37.09;100910.94;5098793;28;20511;-68
2022/08/14 06:57:40;;;;;;;5.37;4.43;;;;;;;31.93;36.51;100892.72;5099362;28;20505;-67
2022/08/14 07:00:11;;;;;;;5.53;4.13;;;;;;;32.93;35.22;100894.69;5098898;28;20458;-66
2022/08/14 07:08:04;;;;;;;6.50;4.27;;;;;;;30.50;39.22;100897.91;5098434;28;20468;-68
2022/08/14 07:10:31;;;;;;;7.13;4.40;;;;;;;29.30;41.56;100893.59;5099151;28;20835;-68
2022/08/14 07:12:57;;;;;;;4.43;4.13;;;;;;;29.06;41.63;100899.63;5098849;28;20183;-69
2022/08/14 07:15:22;;;;;;;6.33;4.60;;;;;;;28.09;44.48;100900.38;5099398;28;20783;-69
2022/08/14 07:17:49;;;;;;;6.33;4.83;;;;;;;26.75;46.96;100902.78;5098829;28;20172;-68
2022/08/14 07:20:19;;;;;;;4.87;4.47;;;;;;;27.04;47.22;100903.84;5098703;28;20200;-68
2022/08/14 07:22:47;;;;;;;7.33;5.30;;;;;;;28.98;43.07;100893.88;5099241;28;20410;-68
2022/08/14 07:25:13;;;;;;;6.30;4.90;;;;;;;29.29;42.53;100883.81;5098639;28;20803;-68
2022/08/14 07:27:39;;;;;;;5.40;4.90;;;;;;;28.88;42.80;100887.41;5099003;28;20407;-70
2022/08/14 07:30:05;;;;;;;5.63;5.07;;;;;;;30.97;39.75;100878.38;5098290;28;20256;-68
2022/08/14 07:32:30;;;;;;;5.13;4.70;;;;;;;30.92;38.75;100881.44;5097347;28;20516;-69
2022/08/14 07:34:56;;;;;;;6.70;4.67;;;;;;;33.20;34.39;100872.59;5098452;28;20259;-69
2022/08/14 07:37:21;;;;;;;5.23;4.40;;;;;;;34.45;32.20;100874.53;5099090;28;20250;-68
2022/08/14 07:39:46;;;;;;;7.80;4.50;;;;;;;30.53;38.94;100886.94;5098423;28;20195;-68
2022/08/14 07:42:13;;;;;;;6.40;4.40;;;;;;;32.72;35.12;100876.59;5098468;28;20221;-68
2022/08/14 07:44:38;;;;;;;6.43;4.20;;;;;;;31.69;37.44;100880.16;5098959;28;20549;-68
2022/08/14 07:47:04;;;;;;;4.83;3.97;;;;;;;33.28;34.59;100880.09;5098379;28;20471;-67
2022/08/14 07:49:31;;;;;;;5.10;4.23;;;;;;;32.63;36.00;100882.69;5098361;28;20239;-67
2022/08/14 07:51:56;;;;;;;6.40;4.10;;;;;;;32.03;36.14;100880.25;5098828;28;20160;-67
2022/08/14 07:54:22;;;;;;;4.33;3.90;;;;;;;34.79;32.38;100872.34;5097939;28;20889;-67
2022/08/14 07:56:47;;;;;;;4.30;4.00;;;;;;;32.60;35.43;100885.63;5098358;28;20172;-68
2022/08/14 07:59:15;;;;;;;7.17;4.07;;;;;;;31.02;38.00;100895.06;5098591;28;20175;-68
2022/08/14 08:01:41;;;;;;;4.90;4.50;;;;;;;33.12;34.88;100888.59;5097379;28;20261;-68
2022/08/14 08:04:07;;;;;;;4.87;4.43;;;;;;;32.83;34.90;100881.94;5097526;28;20418;-69
2022/08/14 08:06:33;;;;;;;9.17;4.67;;;;;;;32.89;35.16;100884.16;5097679;28;20168;-70
2022/08/14 08:08:59;;;;;;;5.03;4.50;;;;;;;31.72;36.48;100882.66;5097454;28;20472;-70
2022/08/14 08:11:26;;;;;;;5.33;4.50;;;;;;;30.20;39.61;100893.72;5098156;28;20417;-68
2022/08/14 08:13:53;;;;;;;8.47;4.40;;;;;;;32.95;34.78;100876.50;5097566;28;20529;-69
2022/08/14 08:16:22;;;;;;;7.53;4.80;;;;;;;32.84;35.10;100877.38;5097452;28;20410;-68
2022/08/14 08:18:49;;;;;;;4.57;4.20;;;;;;;32.64;34.70;100881.69;5097957;28;20422;-68
2022/08/14 08:21:14;;;;;;;5.70;4.50;;;;;;;32.74;34.80;100886.25;5098480;28;20553;-68
2022/08/14 08:23:40;;;;;;;7.67;4.80;;;;;;;31.79;36.93;100891.13;5097205;28;20426;-69
2022/08/14 08:26:05;;;;;;;5.60;4.70;;;;;;;30.86;38.73;100887.25;5097089;28;20210;-70
2022/08/14 08:28:30;;;;;;;6.80;4.60;;;;;;;31.27;37.78;100879.78;5098397;28;20168;-67
2022/08/14 08:31:01;;;;;;;8.50;5.00;;;;;;;31.70;37.39;100874.69;5098023;28;20172;-68
2022/08/14 08:33:30;;;;;;;5.47;4.90;;;;;;;33.07;34.38;100872.75;5097783;28;20179;-68
2022/08/14 08:36:00;;;;;;;7.17;5.70;;;;;;;34.43;32.26;100868.41;5097538;28;20428;-68
2022/08/14 08:38:26;;;;;;;6.30;4.90;;;;;;;34.42;32.83;100864.84;5097302;28;20456;-68
2022/08/14 08:40:55;;;;;;;6.67;4.60;;;;;;;33.80;33.57;100877.50;5097826;28;20511;-67
2022/08/14 08:43:34;;;;;;;5.23;4.70;;;;;;;34.77;32.33;100866.19;5098021;28;20414;-67
2022/08/14 08:46:03;;;;;;;5.93;4.50;;;;;;;35.20;31.43;100864.97;5101559;28;20492;-68
2022/08/14 08:48:42;;;;;;;6.60;4.53;;;;;;;35.46;31.42;100867.13;5101688;28;20406;-66
2022/08/14 08:51:07;;;;;;;7.70;4.60;;;;;;;35.44;30.77;100855.56;5101582;28;20417;-66
2022/08/14 08:53:34;;;;;;;6.67;4.40;;;;;;;35.53;31.00;100857.41;5101302;28;20703;-66
2022/08/14 08:56:00;;;;;;;4.90;4.60;;;;;;;37.51;28.03;100848.88;5101729;28;20175;-66
2022/08/14 08:58:25;;;;;;;4.50;4.10;;;;;;;38.03;27.32;100844.44;5101464;28;20463;-66
2022/08/14 09:00:54;;;;;;;5.93;4.43;;;;;;;37.50;28.38;100855.31;5101693;28;20192;-66
2022/08/14 09:03:25;;;;;;;5.40;4.27;;;;;;;37.64;27.68;100851.16;5101293;28;20470;-66
2022/08/14 09:06:00;;;;;;;5.23;4.20;;;;;;;37.15;28.72;100851.63;5101380;28;20402;-66
2022/08/14 09:08:28;;;;;;;6.50;4.33;;;;;;;38.55;26.64;100836.16;5101361;28;20443;-66
2022/08/14 09:10:54;;;;;;;7.60;5.30;;;;;;;36.04;30.52;100846.28;5101326;28;20473;-66
2022/08/14 09:13:21;;;;;;;6.40;4.20;;;;;;;38.45;26.86;100840.88;5101206;28;20414;-66
2022/08/14 09:15:48;;;;;;;6.30;4.77;;;;;;;37.78;27.45;100830.72;5100414;28;20394;-66
2022/08/14 09:18:15;;;;;;;4.77;4.03;;;;;;;37.91;27.71;100833.81;5101525;28;20406;-68
2022/08/14 09:20:44;;;;;;;5.20;4.10;;;;;;;36.78;28.99;100841.75;5100749;28;20547;-69
2022/08/14 09:23:11;;;;;;;7.33;4.50;;;;;;;36.15;30.10;100842.53;5100817;28;20420;-71
2022/08/14 09:25:37;;;;;;;7.30;4.53;;;;;;;34.36;32.21;100841.88;5101253;28;20416;-68
2022/08/14 09:28:04;;;;;;;4.97;4.40;;;;;;;35.32;31.73;100830.47;5100893;28;20475;-68
2022/08/14 09:30:35;;;;;;;5.20;4.63;;;;;;;35.82;30.83;100834.78;5100937;28;20413;-69
2022/08/14 09:33:00;;;;;;;6.00;4.97;;;;;;;34.87;32.86;100826.47;5100946;28;20410;-69
2022/08/14 09:35:44;;;;;;;5.33;4.83;;;;;;;35.43;31.63;100820.50;5100878;28;20675;-69
2022/08/14 09:38:15;;;;;;;5.57;5.07;;;;;;;35.46;31.34;100815.59;5100799;28;20179;-68
2022/08/14 09:41:02;;;;;;;6.87;5.37;;;;;;;34.89;32.47;100813.63;5100541;28;20714;-69
2022/08/14 09:43:54;;;;;;;5.70;5.20;;;;;;;35.18;32.50;100811.91;5100520;28;20704;-69
2022/08/14 09:46:19;;;;;;;7.70;4.90;;;;;;;36.31;30.18;100809.31;5099970;28;20415;-69
2022/08/14 09:48:45;;;;;;;5.60;4.93;;;;;;;34.89;31.96;100818.22;5100151;28;20410;-69
2022/08/14 09:51:22;;;;;;;5.80;5.30;;;;;;;35.66;31.24;100811.00;5099742;28;20221;-69
2022/08/14 09:53:59;;;;;;;5.87;5.27;;;;;;;32.50;35.76;100820.75;5100194;28;20544;-69
2022/08/14 09:56:24;;;;;;;7.80;5.30;;;;;;;34.04;33.60;100817.69;5100053;28;20402;-68
2022/08/14 09:58:51;;;;;;;7.23;5.30;;;;;;;33.12;34.46;100811.13;5100445;28;20463;-68
2022/08/14 10:01:18;;;;;;;6.23;5.70;;;;;;;33.03;34.52;100801.09;5100250;28;20573;-68
2022/08/14 10:03:58;;;;;;;7.37;6.13;;;;;;;32.87;35.46;100801.56;5100305;28;20425;-68
2022/08/14 10:06:26;;;;;;;6.27;5.87;;;;;;;34.63;32.51;100785.34;5100146;28;20436;-70
2022/08/14 10:09:00;;;;;;;8.40;5.87;;;;;;;35.75;30.98;100782.13;5100301;28;20811;-69
2022/08/14 10:11:35;;;;;;;6.40;5.90;;;;;;;35.28;31.11;100779.38;5100189;28;20492;-67
2022/08/14 10:14:23;;;;;;;6.00;5.40;;;;;;;34.30;32.23;100777.50;5099863;28;20504;-69
2022/08/14 10:16:53;;;;;;;6.53;5.93;;;;;;;35.10;31.71;100774.72;5100153;28;20710;-70
2022/08/14 10:19:29;;;;;;;6.80;6.20;;;;;;;35.25;31.53;100770.53;5099982;28;20410;-71
2022/08/14 10:22:09;;;;;;;10.50;5.97;;;;;;;34.78;32.28;100770.41;5099874;28;20709;-71
2022/08/14 10:24:45;;;;;;;6.17;5.67;;;;;;;32.78;35.25;100769.91;5099807;28;20444;-71
2022/08/14 10:27:17;;;;;;;6.47;5.97;;;;;;;33.77;34.39;100773.13;5099855;28;20413;-71
2022/08/14 10:29:44;;;;;;;6.30;5.73;;;;;;;30.87;39.03;100776.78;5099672;28;20457;-68
2022/08/14 10:32:10;;;;;;;8.60;6.13;;;;;;;32.43;36.51;100765.59;5098921;28;20798;-66
2022/08/14 10:34:38;;;;;;;7.10;6.40;;;;;;;32.43;36.21;100752.94;5099452;28;20418;-67
2022/08/14 10:37:12;;;;;;;7.17;6.40;;;;;;;32.16;36.57;100754.22;5100038;28;20427;-67
2022/08/14 10:39:39;;;;;;;6.97;6.37;;;;;;;32.93;35.43;100752.41;5098749;28;20401;-66
2022/08/14 10:42:10;;;;;;;7.37;6.07;;;;;;;34.57;33.06;100747.06;5099579;28;20819;-68
2022/08/14 10:44:47;;;;;;;8.30;6.97;;;;;;;33.52;34.26;100758.22;5099406;28;20515;-68
2022/08/14 10:47:13;;;;;;;6.97;6.40;;;;;;;33.73;34.47;100750.94;5099390;28;20425;-69
2022/08/14 10:49:48;;;;;;;7.20;6.70;;;;;;;31.06;37.89;100759.25;5099392;28;20555;-69
2022/08/14 10:52:23;;;;;;;7.27;6.60;;;;;;;32.82;35.54;100745.22;5099281;28;20410;-69
2022/08/14 10:54:49;;;;;;;9.60;6.53;;;;;;;32.96;35.58;100745.91;5098888;28;20870;-68
2022/08/14 10:57:20;;;;;;;7.33;6.73;;;;;;;33.20;34.92;100737.53;5099265;28;20414;-68
2022/08/14 10:59:57;;;;;;;7.83;7.10;;;;;;;32.28;36.58;100746.13;5099154;28;20512;-68
2022/08/14 11:02:30;;;;;;;7.40;6.70;;;;;;;32.48;36.54;100747.19;5099165;28;20426;-67
2022/08/14 11:05:02;;;;;;;7.50;6.80;;;;;;;31.61;38.00;100739.78;5099043;28;20888;-69
2022/08/14 11:07:28;;;;;;;6.90;6.40;;;;;;;31.34;38.39;100739.13;5097469;28;20426;-69
2022/08/14 11:09:59;;;;;;;7.93;7.03;;;;;;;32.25;36.53;100739.16;5098980;28;20426;-68
2022/08/14 11:12:26;;;;;;;8.10;7.20;;;;;;;32.18;36.00;100741.50;5099051;28;20709;-68
2022/08/14 11:14:58;;;;;;;7.80;7.20;;;;;;;31.85;36.54;100743.22;5099237;28;20410;-69
2022/08/14 11:17:27;;;;;;;8.07;7.17;;;;;;;32.34;35.34;100743.78;5098747;28;20441;-66
2022/08/14 11:19:57;;;;;;;8.13;7.43;;;;;;;32.18;35.62;100743.34;5098808;28;20449;-67
2022/08/14 11:22:26;;;;;;;9.77;7.37;;;;;;;32.49;35.59;100738.94;5098758;28;20415;-69
2022/08/14 11:24:55;;;;;;;11.00;7.13;;;;;;;32.48;35.17;100737.22;5097951;28;20472;-71
2022/08/14 11:27:21;;;;;;;9.10;7.80;;;;;;;31.77;37.08;100728.63;5098188;28;20509;-70
2022/08/14 11:29:48;;;;;;;7.70;7.10;;;;;;;31.89;37.85;100731.22;5098030;28;20501;-70
2022/08/14 11:32:13;;;;;;;7.47;6.87;;;;;;;31.00;39.88;100730.94;5099142;28;20225;-70
2022/08/14 11:34:38;;;;;;;8.00;7.30;;;;;;;30.28;41.26;100726.44;5098533;28;20419;-71
2022/08/14 11:37:10;;;;;;;8.10;7.50;;;;;;;30.63;40.91;100720.28;5098613;28;20183;-70
2022/08/14 11:39:36;;;;;;;7.90;7.10;;;;;;;30.21;41.50;100720.66;5099110;28;20164;-68
2022/08/14 11:42:05;;;;;;;8.37;7.70;;;;;;;30.64;40.51;100713.94;5098569;28;20826;-70
2022/08/14 11:44:30;;;;;;;7.90;7.20;;;;;;;29.83;42.50;100713.53;5098416;28;20290;-69